createdAt,value
2022-10-18T00:00:25.558Z,66.70
2022-10-18T00:02:53.235Z,98.82
2022-10-18T00:05:20.903Z,75.07
2022-10-18T00:07:48.591Z,62.05
2022-10-18T00:10:16.224Z,75.63
2022-10-18T00:12:44.142Z,61.67
2022-10-18T00:15:13.520Z,72.00
2022-10-18T00:17:41.501Z,57.85
2022-10-18T00:20:10.408Z,69.50
2022-10-18T00:22:39.792Z,81.80
2022-10-18T00:25:08.969Z,68.07
2022-10-18T00:27:37.386Z,54.15
2022-10-18T00:30:05.865Z,64.90
2022-10-18T00:32:38.535Z,52.90
2022-10-18T00:35:07.214Z,71.97
2022-10-18T00:37:35.269Z,51.30
2022-10-18T00:40:03.179Z,58.47
2022-10-18T00:42:33.090Z,55.03
2022-10-18T00:45:15.432Z,48.08
2022-10-18T00:47:45.775Z,44.15
2022-10-18T00:50:13.766Z,42.80
2022-10-18T00:52:44.244Z,41.63
2022-10-18T00:55:12.542Z,45.60
2022-10-18T00:57:41.516Z,52.10
2022-10-18T01:00:10.747Z,52.67
2022-10-18T01:02:39.350Z,51.00
2022-10-18T01:05:11.139Z,50.75
2022-10-18T01:07:49.404Z,45.93
2022-10-18T01:10:26.577Z,32.87
2022-10-18T01:13:04.433Z,37.83
2022-10-18T01:15:35.222Z,44.88
2022-10-18T01:18:09.053Z,49.90
2022-10-18T01:21:13.159Z,39.05
2022-10-18T01:24:02.929Z,33.22
2022-10-18T01:26:41.123Z,47.97
2022-10-18T01:29:16.673Z,67.03
2022-10-18T01:31:46.729Z,49.08
2022-10-18T01:34:16.568Z,43.33
2022-10-18T01:36:46.302Z,42.75
2022-10-18T01:39:16.542Z,36.57
2022-10-18T01:41:45.769Z,36.33
2022-10-18T01:44:16.483Z,58.97
2022-10-18T01:46:46.011Z,44.42
2022-10-18T01:49:14.055Z,31.42
2022-10-18T01:51:41.723Z,28.88
2022-10-18T01:54:10.915Z,36.20
2022-10-18T01:56:44.233Z,36.00
2022-10-18T01:59:29.978Z,31.20
2022-10-18T02:02:04.151Z,36.20
2022-10-18T02:04:36.858Z,40.55
2022-10-18T02:07:07.783Z,40.72
2022-10-18T02:09:39.463Z,45.72
2022-10-18T02:12:09.048Z,37.00
2022-10-18T02:14:37.442Z,45.17
2022-10-18T02:17:08.568Z,247.85
2022-10-18T02:19:40.264Z,125.75
2022-10-18T02:22:08.928Z,185.15
2022-10-18T02:24:38.874Z,40.53
2022-10-18T02:27:06.738Z,46.75
2022-10-18T02:29:34.852Z,88.65
2022-10-18T02:32:07.703Z,91.68
2022-10-18T02:34:39.159Z,178.97
2022-10-18T02:37:07.198Z,116.05
2022-10-18T02:39:36.621Z,172.17
2022-10-18T02:42:06.791Z,200.60
2022-10-18T02:44:34.642Z,163.97
2022-10-18T02:47:02.508Z,131.80
2022-10-18T02:49:31.577Z,39.67
2022-10-18T02:51:59.212Z,71.45
2022-10-18T02:54:26.871Z,73.60
2022-10-18T02:56:54.600Z,142.77
2022-10-18T02:59:22.224Z,169.20
2022-10-18T03:01:49.897Z,106.40
2022-10-18T03:04:17.594Z,157.52
2022-10-18T03:06:46.731Z,125.57
2022-10-18T03:09:14.393Z,110.57
2022-10-18T03:11:42.002Z,127.00
2022-10-18T03:14:09.633Z,113.60
2022-10-18T03:16:37.300Z,172.82
2022-10-18T03:19:04.991Z,142.70
2022-10-18T03:21:32.592Z,129.18
2022-10-18T03:24:01.629Z,125.17
2022-10-18T03:26:29.569Z,155.82
2022-10-18T03:28:57.322Z,88.47
2022-10-18T03:31:25.107Z,109.80
2022-10-18T03:33:52.757Z,108.13
2022-10-18T03:36:20.391Z,107.43
2022-10-18T03:38:47.998Z,131.70
2022-10-18T03:41:17.037Z,121.90
2022-10-18T03:43:44.685Z,46.80
2022-10-18T03:46:12.314Z,41.47
2022-10-18T03:48:40.138Z,36.22
2022-10-18T03:51:07.743Z,79.17
2022-10-18T03:53:35.341Z,85.43
2022-10-18T03:56:03.060Z,130.15
2022-10-18T04:00:59.739Z,102.20
2022-10-18T04:03:27.538Z,113.68
2022-10-18T04:05:55.150Z,70.50
2022-10-18T04:08:22.707Z,71.88
2022-10-18T04:10:50.397Z,77.20
2022-10-18T04:13:18.050Z,82.75
2022-10-18T04:15:47.081Z,77.70
2022-10-18T04:18:14.714Z,60.65
2022-10-18T04:20:42.379Z,95.35
2022-10-18T04:23:10.003Z,83.20
2022-10-18T04:25:37.704Z,71.47
2022-10-18T04:28:05.631Z,66.60
2022-10-18T04:30:33.275Z,76.45
2022-10-18T04:33:02.556Z,113.63
2022-10-18T04:35:30.263Z,67.75
2022-10-18T04:37:57.918Z,83.80
2022-10-18T04:40:25.570Z,100.20
2022-10-18T04:42:53.205Z,42.67
2022-10-18T04:45:20.851Z,42.57
2022-10-18T04:47:48.493Z,24.58
2022-10-18T04:50:17.636Z,65.33
2022-10-18T04:52:45.374Z,35.08
2022-10-18T04:55:13.125Z,27.30
2022-10-18T04:57:40.789Z,65.83
2022-10-18T05:00:09.166Z,115.68
2022-10-18T05:02:36.814Z,91.70
2022-10-18T05:05:05.810Z,36.70
2022-10-18T05:07:36.032Z,41.43
2022-10-18T05:10:03.758Z,59.97
2022-10-18T05:12:31.683Z,82.18
2022-10-18T05:14:59.454Z,81.75
2022-10-18T05:17:27.171Z,34.75
2022-10-18T05:19:54.795Z,107.43
2022-10-18T05:22:22.515Z,65.93
2022-10-18T05:24:51.554Z,30.40
2022-10-18T05:27:19.220Z,41.95
2022-10-18T05:29:47.023Z,28.70
2022-10-18T05:32:14.721Z,28.00
2022-10-18T05:34:42.359Z,55.05
2022-10-18T05:37:10.055Z,39.83
2022-10-18T05:39:38.486Z,36.80
2022-10-18T05:42:08.693Z,53.20
2022-10-18T05:44:36.396Z,76.38
2022-10-18T05:47:04.055Z,83.63
2022-10-18T05:49:31.730Z,134.60
2022-10-18T05:51:59.390Z,93.63
2022-10-18T05:54:27.137Z,67.27
2022-10-18T05:56:54.752Z,66.38
2022-10-18T05:59:23.959Z,54.28
2022-10-18T06:01:51.695Z,50.53
2022-10-18T06:04:19.355Z,45.42
2022-10-18T06:06:47.047Z,97.15
2022-10-18T06:09:14.721Z,69.50
2022-10-18T06:11:42.348Z,100.45
2022-10-18T06:14:11.000Z,83.45
2022-10-18T06:16:40.092Z,83.38
2022-10-18T06:19:07.867Z,96.20
2022-10-18T06:21:35.645Z,73.30
2022-10-18T06:24:03.361Z,49.50
2022-10-18T06:26:30.985Z,50.20
2022-10-18T06:28:58.716Z,55.03
2022-10-18T06:31:26.605Z,55.67
2022-10-18T06:33:57.132Z,73.38
2022-10-18T06:36:25.027Z,43.05
2022-10-18T06:38:52.718Z,55.25
2022-10-18T06:41:21.470Z,58.27
2022-10-18T06:43:49.892Z,134.40
2022-10-18T06:46:18.037Z,70.07
2022-10-18T06:48:45.684Z,135.50
2022-10-18T06:51:15.168Z,150.57
2022-10-18T06:53:53.482Z,109.65
2022-10-18T06:56:30.899Z,99.68
2022-10-18T07:01:31.307Z,58.30
2022-10-18T07:03:59.089Z,46.85
2022-10-18T07:06:28.147Z,47.42
2022-10-18T07:08:56.148Z,61.03
2022-10-18T07:11:25.418Z,29.80
2022-10-18T07:13:54.019Z,43.58
2022-10-18T07:16:22.048Z,56.15
2022-10-18T07:18:50.673Z,34.35
2022-10-18T07:21:20.411Z,39.55
2022-10-18T07:23:49.868Z,38.43
2022-10-18T07:26:19.333Z,32.45
2022-10-18T07:28:48.860Z,25.38
2022-10-18T07:31:16.630Z,29.38
2022-10-18T07:33:44.283Z,30.70
2022-10-18T07:36:13.423Z,25.42
2022-10-18T07:38:41.599Z,24.98
2022-10-18T07:41:12.725Z,27.60
2022-10-18T07:43:43.426Z,24.80
2022-10-18T07:46:11.234Z,25.27
2022-10-18T07:48:38.884Z,24.73
2022-10-18T07:51:06.926Z,27.07
2022-10-18T07:53:34.779Z,26.65
2022-10-18T07:56:07.105Z,25.92
2022-10-18T07:58:38.669Z,23.00
2022-10-18T08:01:07.670Z,24.07
2022-10-18T08:03:35.598Z,24.48
2022-10-18T08:06:03.887Z,22.23
2022-10-18T08:08:31.675Z,23.80
2022-10-18T08:11:03.705Z,23.63
2022-10-18T08:13:31.427Z,20.58
2022-10-18T08:16:02.761Z,20.70
2022-10-18T08:18:30.437Z,21.13
2022-10-18T08:20:58.124Z,23.73
2022-10-18T08:23:25.773Z,22.58
2022-10-18T08:25:53.404Z,18.92
2022-10-18T08:28:21.118Z,23.10
2022-10-18T08:30:48.733Z,20.00
2022-10-18T08:33:17.800Z,21.67
2022-10-18T08:35:45.475Z,21.17
2022-10-18T08:38:18.017Z,20.27
2022-10-18T08:40:46.543Z,25.77
2022-10-18T08:43:21.579Z,22.73
2022-10-18T08:45:50.946Z,24.90
2022-10-18T08:48:23.019Z,21.87
2022-10-18T08:50:51.421Z,24.15
2022-10-18T08:53:21.977Z,21.40
2022-10-18T08:55:52.680Z,22.85
2022-10-18T08:58:22.656Z,23.73
2022-10-18T09:00:58.501Z,20.00
2022-10-18T09:03:39.706Z,19.15
2022-10-18T09:06:17.664Z,20.08
2022-10-18T09:08:54.370Z,18.88
2022-10-18T09:11:31.447Z,18.95
2022-10-18T09:14:19.105Z,19.27
2022-10-18T09:16:51.694Z,17.70
2022-10-18T09:19:31.028Z,18.20
2022-10-18T09:22:04.011Z,18.40
2022-10-18T09:24:37.552Z,17.15
2022-10-18T09:27:06.580Z,14.65
2022-10-18T09:29:43.398Z,20.35
2022-10-18T09:32:22.422Z,18.67
2022-10-18T09:34:54.638Z,16.90
2022-10-18T09:37:23.811Z,16.40
2022-10-18T09:39:53.159Z,18.60
2022-10-18T09:42:26.925Z,16.90
2022-10-18T09:44:57.796Z,19.60
2022-10-18T09:47:27.699Z,18.80
2022-10-18T09:49:59.145Z,18.05
2022-10-18T09:52:30.023Z,22.00
2022-10-18T09:55:01.161Z,15.20
2022-10-18T09:57:32.887Z,17.88
2022-10-18T10:00:01.724Z,15.32
2022-10-18T10:02:29.490Z,22.65
2022-10-18T10:04:58.696Z,20.60
2022-10-18T10:07:29.893Z,17.43
2022-10-18T10:10:06.682Z,18.23
2022-10-18T10:12:36.967Z,15.63
2022-10-18T10:15:10.483Z,17.50
2022-10-18T10:17:38.636Z,15.73
2022-10-18T10:20:19.428Z,10.68
2022-10-18T10:22:47.894Z,12.52
2022-10-18T10:25:22.850Z,10.20
2022-10-18T10:27:50.761Z,9.07
2022-10-18T10:30:24.898Z,11.37
2022-10-18T10:32:53.372Z,10.95
2022-10-18T10:35:42.151Z,8.20
2022-10-18T10:38:24.947Z,6.57
2022-10-18T10:40:52.857Z,6.85
2022-10-18T10:43:40.031Z,8.15
2022-10-18T10:46:10.142Z,9.95
2022-10-18T10:48:43.425Z,10.35
2022-10-18T10:51:13.184Z,6.60
2022-10-18T10:53:45.751Z,6.68
2022-10-18T10:56:23.996Z,5.63
2022-10-18T10:58:52.189Z,4.20
2022-10-18T11:01:23.665Z,5.65
2022-10-18T11:03:53.174Z,6.60
2022-10-18T11:06:40.723Z,3.42
2022-10-18T11:09:16.810Z,3.55
2022-10-18T11:11:49.882Z,4.43
2022-10-18T11:14:26.875Z,4.33
2022-10-18T11:17:03.089Z,5.53
2022-10-18T11:19:40.179Z,5.25
2022-10-18T11:22:14.014Z,7.78
2022-10-18T11:24:41.666Z,5.55
2022-10-18T11:27:13.679Z,5.57
2022-10-18T11:29:52.700Z,4.40
2022-10-18T11:32:26.483Z,3.63
2022-10-18T11:35:03.226Z,4.68
2022-10-18T11:37:45.340Z,5.27
2022-10-18T11:40:27.413Z,6.37
2022-10-18T11:42:59.840Z,4.53
2022-10-18T11:45:33.607Z,6.25
2022-10-18T11:48:08.020Z,5.88
2022-10-18T11:50:39.256Z,6.07
2022-10-18T11:53:15.112Z,4.78
2022-10-18T11:55:51.170Z,4.97
2022-10-18T11:58:35.938Z,3.75
2022-10-18T12:01:09.087Z,2.92
2022-10-18T12:03:46.629Z,2.15
2022-10-18T12:06:16.839Z,2.80
2022-10-18T12:08:48.161Z,3.10
2022-10-18T12:11:17.919Z,4.57
2022-10-18T12:13:48.309Z,3.97
2022-10-18T12:16:16.655Z,3.50
2022-10-18T12:18:57.383Z,3.20
2022-10-18T12:21:27.491Z,2.85
2022-10-18T12:23:59.827Z,3.80
2022-10-18T12:26:29.232Z,4.32
2022-10-18T12:29:05.555Z,3.72
2022-10-18T12:31:38.630Z,4.87
2022-10-18T12:34:17.480Z,3.42
2022-10-18T12:36:58.217Z,6.38
2022-10-18T12:39:38.742Z,3.80
2022-10-18T12:42:20.484Z,3.72
2022-10-18T12:44:48.764Z,2.50
2022-10-18T12:47:23.285Z,2.55
2022-10-18T12:49:57.566Z,2.27
2022-10-18T12:52:27.990Z,2.97
2022-10-18T12:55:07.661Z,4.57
2022-10-18T12:58:04.640Z,3.03
2022-10-18T13:00:55.530Z,2.13
2022-10-18T13:03:47.407Z,2.90
2022-10-18T13:06:15.005Z,3.97
2022-10-18T13:08:43.567Z,3.38
2022-10-18T13:11:33.477Z,1.93
2022-10-18T13:14:35.495Z,3.13
2022-10-18T13:17:08.540Z,3.10
2022-10-18T13:19:41.204Z,1.67
2022-10-18T13:22:23.308Z,2.70
2022-10-18T13:25:02.127Z,1.77
2022-10-18T13:27:39.596Z,4.60
2022-10-18T13:30:20.745Z,2.22
2022-10-18T13:32:54.426Z,2.43
2022-10-18T13:35:51.151Z,2.25
2022-10-18T13:38:43.016Z,3.15
2022-10-18T13:41:12.994Z,4.07
2022-10-18T13:44:18.721Z,2.90
2022-10-18T13:47:34.872Z,5.25
2022-10-18T13:53:27.176Z,2.80
2022-10-18T13:56:06.969Z,3.00
2022-10-18T13:58:48.813Z,3.35
2022-10-18T14:01:31.359Z,2.85
2022-10-18T14:04:26.793Z,4.72
2022-10-18T14:06:59.907Z,4.93
2022-10-18T14:09:43.839Z,4.45
2022-10-18T14:12:20.410Z,4.05
2022-10-18T14:14:52.528Z,5.55
2022-10-18T14:17:29.475Z,4.97
2022-10-18T14:20:01.168Z,4.07
2022-10-18T14:22:32.501Z,3.80
2022-10-18T14:25:00.358Z,4.80
2022-10-18T14:27:28.955Z,4.85
2022-10-18T14:30:11.073Z,4.40
2022-10-18T14:32:44.215Z,4.18
2022-10-18T14:35:32.163Z,4.10
2022-10-18T14:38:00.474Z,4.83
2022-10-18T14:40:30.920Z,5.25
2022-10-18T14:43:02.990Z,8.10
2022-10-18T14:45:30.679Z,5.43
2022-10-18T14:48:08.689Z,5.82
2022-10-18T14:50:36.358Z,3.15
2022-10-18T14:53:08.062Z,4.27
2022-10-18T14:55:37.322Z,4.18
2022-10-18T14:58:05.024Z,3.95
2022-10-18T15:00:36.388Z,4.57
2022-10-18T15:03:05.285Z,2.67
2022-10-18T15:05:34.371Z,3.17
2022-10-18T15:08:02.273Z,4.68
2022-10-18T15:10:32.347Z,6.90
2022-10-18T15:13:11.081Z,4.27
2022-10-18T15:15:39.704Z,4.20
2022-10-18T15:18:08.014Z,6.75
2022-10-18T15:20:42.333Z,3.50
2022-10-18T15:23:24.551Z,4.05
2022-10-18T15:25:52.781Z,4.03
2022-10-18T15:28:29.042Z,3.93
2022-10-18T15:30:58.542Z,4.55
2022-10-18T15:33:27.899Z,2.80
2022-10-18T15:35:56.932Z,6.97
2022-10-18T15:38:27.712Z,4.25
2022-10-18T15:40:55.885Z,4.50
2022-10-18T15:43:39.359Z,3.53
2022-10-18T15:46:07.574Z,5.70
2022-10-18T15:48:38.445Z,5.87
2022-10-18T15:51:08.903Z,5.57
2022-10-18T15:53:43.390Z,5.45
2022-10-18T15:56:27.943Z,6.90
2022-10-18T15:58:56.951Z,5.80
2022-10-18T16:01:32.505Z,6.00
2022-10-18T16:04:01.140Z,5.80
2022-10-18T16:06:30.189Z,4.32
2022-10-18T16:08:57.873Z,8.85
2022-10-18T16:11:26.469Z,3.97
2022-10-18T16:13:57.808Z,6.10
2022-10-18T16:16:29.752Z,6.15
2022-10-18T16:18:58.033Z,5.88
2022-10-18T16:21:27.776Z,5.95
2022-10-18T16:23:57.159Z,7.15
2022-10-18T16:26:25.298Z,6.70
2022-10-18T16:28:53.020Z,7.90
2022-10-18T16:31:22.754Z,6.47
2022-10-18T16:33:51.546Z,7.57
2022-10-18T16:36:21.132Z,5.82
2022-10-18T16:38:49.455Z,7.82
2022-10-18T16:41:19.054Z,4.50
2022-10-18T16:43:47.944Z,6.95
2022-10-18T16:46:17.890Z,7.60
2022-10-18T16:48:46.407Z,7.88
2022-10-18T16:51:15.490Z,8.53
2022-10-18T16:53:43.574Z,8.43
2022-10-18T16:56:14.825Z,6.30
2022-10-18T16:58:43.867Z,7.03
2022-10-18T17:01:12.414Z,11.65
2022-10-18T17:03:41.324Z,6.83
2022-10-18T17:06:14.914Z,8.18
2022-10-18T17:08:42.544Z,9.27
2022-10-18T17:11:10.832Z,7.95
2022-10-18T17:13:38.754Z,9.02
2022-10-18T17:16:08.955Z,6.13
2022-10-18T17:18:37.167Z,6.68
2022-10-18T17:21:04.966Z,10.63
2022-10-18T17:23:34.179Z,7.68
2022-10-18T17:26:06.928Z,9.73
2022-10-18T17:28:42.878Z,5.95
2022-10-18T17:31:12.475Z,7.05
2022-10-18T17:33:40.097Z,6.45
2022-10-18T17:36:08.099Z,6.83
2022-10-18T17:38:35.761Z,7.38
2022-10-18T17:41:07.602Z,6.45
2022-10-18T17:43:35.316Z,8.70
2022-10-18T17:46:02.942Z,8.60
2022-10-18T17:48:32.248Z,8.80
2022-10-18T17:50:59.929Z,6.28
2022-10-18T17:53:29.120Z,7.55
2022-10-18T17:56:02.525Z,9.45
2022-10-18T17:58:30.964Z,8.63
2022-10-18T18:00:58.942Z,9.23
2022-10-18T18:03:26.681Z,12.15
2022-10-18T18:05:55.788Z,8.63
2022-10-18T18:08:25.385Z,7.43
2022-10-18T18:10:55.106Z,6.97
2022-10-18T18:13:22.810Z,8.70
2022-10-18T18:15:50.401Z,6.72
2022-10-18T18:18:18.048Z,7.00
2022-10-18T18:20:53.352Z,6.95
2022-10-18T18:23:24.438Z,7.70
2022-10-18T18:25:56.532Z,7.40
2022-10-18T18:28:24.333Z,8.32
2022-10-18T18:30:51.939Z,9.52
2022-10-18T18:33:19.554Z,9.30
2022-10-18T18:35:55.350Z,10.07
2022-10-18T18:38:24.415Z,12.95
2022-10-18T18:40:52.071Z,8.93
2022-10-18T18:43:23.253Z,9.23
2022-10-18T18:45:52.152Z,11.00
2022-10-18T18:48:20.117Z,8.75
2022-10-18T18:50:50.577Z,8.77
2022-10-18T18:53:18.290Z,8.40
2022-10-18T18:55:48.393Z,10.57
2022-10-18T18:58:16.036Z,9.32
2022-10-18T19:00:44.573Z,9.23
2022-10-18T19:03:13.481Z,10.55
2022-10-18T19:05:41.144Z,12.32
2022-10-18T19:08:08.859Z,12.95
2022-10-18T19:10:36.525Z,14.40
2022-10-18T19:13:05.586Z,14.85
2022-10-18T19:15:33.220Z,13.63
2022-10-18T19:18:00.854Z,12.73
2022-10-18T19:20:28.506Z,12.40
2022-10-18T19:22:56.128Z,14.80
2022-10-18T19:25:26.282Z,9.05
2022-10-18T19:27:54.696Z,8.57
2022-10-18T19:30:23.998Z,9.45
2022-10-18T19:32:58.663Z,10.02
2022-10-18T19:35:28.893Z,11.82
2022-10-18T19:37:56.508Z,11.00
2022-10-18T19:40:24.258Z,10.10
2022-10-18T19:42:52.324Z,12.37
2022-10-18T19:45:19.974Z,9.80
2022-10-18T19:47:49.073Z,11.68
2022-10-18T19:50:16.795Z,11.98
2022-10-18T19:52:44.450Z,12.35
2022-10-18T19:55:12.139Z,12.75
2022-10-18T19:57:39.871Z,12.45
2022-10-18T20:00:11.326Z,13.63
2022-10-18T20:02:39.519Z,12.65
2022-10-18T20:05:09.314Z,12.55
2022-10-18T20:07:37.016Z,13.98
2022-10-18T20:10:05.177Z,12.82
2022-10-18T20:12:33.158Z,11.95
2022-10-18T20:15:01.087Z,10.25
2022-10-18T20:17:28.802Z,10.45
2022-10-18T20:19:56.471Z,10.48
2022-10-18T20:22:25.486Z,13.23
2022-10-18T20:24:55.755Z,12.25
2022-10-18T20:27:23.426Z,12.80
2022-10-18T20:29:51.057Z,13.15
2022-10-18T20:32:18.766Z,10.10
2022-10-18T20:34:46.391Z,11.65
2022-10-18T20:37:14.053Z,11.30
2022-10-18T20:39:43.127Z,9.50
2022-10-18T20:42:10.806Z,11.27
2022-10-18T20:44:40.967Z,9.35
2022-10-18T20:47:08.622Z,9.88
2022-10-18T20:49:36.268Z,13.25
2022-10-18T20:52:03.951Z,11.30
2022-10-18T20:54:31.594Z,11.85
2022-10-18T20:57:00.648Z,9.97
2022-10-18T20:59:28.407Z,12.90
2022-10-18T21:01:56.062Z,13.23
2022-10-18T21:04:23.669Z,11.03
2022-10-18T21:06:51.348Z,11.05
2022-10-18T21:09:20.579Z,9.05
2022-10-18T21:11:50.506Z,10.27
2022-10-18T21:14:21.061Z,9.68
2022-10-18T21:16:49.499Z,9.23
2022-10-18T21:19:18.852Z,9.07
2022-10-18T21:21:49.533Z,9.55
2022-10-18T21:24:18.012Z,10.63
2022-10-18T21:26:45.686Z,10.52
2022-10-18T21:29:16.953Z,11.80
2022-10-18T21:31:48.562Z,9.68
2022-10-18T21:34:17.732Z,12.13
2022-10-18T21:36:46.760Z,8.95
2022-10-18T21:39:16.330Z,8.88
2022-10-18T21:41:44.780Z,8.55
2022-10-18T21:44:12.592Z,9.23
2022-10-18T21:46:42.818Z,11.07
2022-10-18T21:49:12.239Z,11.27
2022-10-18T21:51:40.348Z,8.77
2022-10-18T21:54:09.569Z,13.93
2022-10-18T21:56:37.385Z,9.70
2022-10-18T21:59:05.520Z,8.93
2022-10-18T22:01:34.832Z,7.95
2022-10-18T22:04:04.243Z,7.82
2022-10-18T22:09:05.281Z,10.60
2022-10-18T22:11:34.812Z,8.48
2022-10-18T22:14:02.521Z,8.20
2022-10-18T22:16:30.263Z,11.43
2022-10-18T22:18:58.689Z,8.13
2022-10-18T22:21:26.751Z,7.40
2022-10-18T22:23:57.940Z,9.63
2022-10-18T22:26:27.929Z,8.80
2022-10-18T22:28:56.525Z,9.63
2022-10-18T22:31:25.888Z,9.38
2022-10-18T22:33:54.302Z,8.07
2022-10-18T22:36:22.157Z,8.20
2022-10-18T22:38:50.177Z,9.02
2022-10-18T22:41:19.370Z,15.38
2022-10-18T22:43:47.630Z,7.47
2022-10-18T22:46:16.242Z,7.60
2022-10-18T22:48:44.164Z,7.43
2022-10-18T22:51:12.253Z,8.80
2022-10-18T22:53:40.913Z,8.90
2022-10-18T22:56:09.199Z,8.80
2022-10-18T22:58:38.307Z,8.25
2022-10-18T23:01:08.522Z,8.23
2022-10-18T23:03:36.673Z,8.18
2022-10-18T23:06:05.063Z,6.63
2022-10-18T23:08:33.268Z,7.65
2022-10-18T23:11:01.161Z,8.57
2022-10-18T23:13:29.196Z,7.27
2022-10-18T23:16:04.627Z,10.93
2022-10-18T23:18:32.935Z,8.98
2022-10-18T23:21:04.458Z,8.02
2022-10-18T23:23:34.867Z,6.60
2022-10-18T23:26:04.362Z,7.27
2022-10-18T23:28:34.628Z,8.05
2022-10-18T23:31:10.621Z,9.10
2022-10-18T23:33:38.923Z,6.07
2022-10-18T23:36:08.227Z,8.43
2022-10-18T23:38:36.380Z,7.40
2022-10-18T23:41:04.158Z,6.43
2022-10-18T23:43:31.845Z,8.07
2022-10-18T23:45:59.584Z,6.88
2022-10-18T23:48:28.610Z,6.38
2022-10-18T23:50:56.308Z,7.57
2022-10-18T23:53:24.524Z,6.83
2022-10-18T23:55:55.894Z,6.97
2022-10-18T23:58:24.295Z,6.25
